Time;durP1;ratioP1;P1;durP2;ratioP2;P2;SDS_P1;SDS_P2;PMS_P1;PMS_P2;Temp;Humidity;BMP_temperature;BMP_pressure;BME280_temperature;BME280_humidity;BME280_pressure;Samples;Min_cycle;Max_cycle;Signal;HPM_P1;HPM_P2
2023/12/20 00:01:22;;;;;;;0.10;0.10;;;;;;;;;;4959464;28;20078;-80
2023/12/20 00:03:49;;;;;;;0.10;0.10;;;;;;;;;;4962381;28;20516;-79
2023/12/20 00:06:15;;;;;;;0.10;0.10;;;;;;;;;;4960457;28;20063;-80
2023/12/20 00:08:42;;;;;;;0.10;0.10;;;;;;;;;;4967212;28;20035;-80
2023/12/20 00:11:08;;;;;;;0.10;0.10;;;;;;;;;;4961816;28;20059;-80
2023/12/20 00:13:34;;;;;;;0.10;0.10;;;;;;;;;;4962331;28;20055;-80
2023/12/20 00:16:01;;;;;;;0.10;0.10;;;;;;;;;;4962479;28;20864;-80
2023/12/20 00:18:27;;;;;;;0.10;0.10;;;;;;;;;;4964825;28;20078;-80
2023/12/20 00:20:54;;;;;;;0.10;0.10;;;;;;;;;;4982283;28;20055;-80
2023/12/20 00:23:23;;;;;;;0.10;0.10;;;;;;;;;;4960496;28;20051;-80
2023/12/20 00:25:49;;;;;;;0.10;0.10;;;;;;;;;;4956867;28;20087;-80
2023/12/20 00:28:15;;;;;;;0.10;0.10;;;;;;;;;;4963566;28;20076;-80
2023/12/20 00:30:42;;;;;;;0.10;0.10;;;;;;;;;;4963389;28;20047;-80
2023/12/20 00:33:08;;;;;;;0.10;0.10;;;;;;;;;;4960835;28;20070;-80
2023/12/20 00:35:35;;;;;;;0.10;0.10;;;;;;;;;;4960682;28;20051;-79
2023/12/20 00:38:02;;;;;;;0.10;0.10;;;;;;;;;;4981714;28;20055;-80
2023/12/20 00:40:28;;;;;;;0.10;0.10;;;;;;;;;;4981369;28;20059;-79
2023/12/20 00:42:55;;;;;;;0.10;0.10;;;;;;;;;;4963105;28;20048;-80
2023/12/20 00:45:21;;;;;;;0.10;0.10;;;;;;;;;;4962376;28;20086;-79
2023/12/20 00:47:48;;;;;;;4.47;2.13;;;;;;;;;;4981570;28;20257;-79
2023/12/20 00:50:14;;;;;;;0.10;0.10;;;;;;;;;;4963443;28;20059;-80
2023/12/20 00:52:41;;;;;;;0.10;0.10;;;;;;;;;;4964983;28;20111;-80
2023/12/20 00:55:08;;;;;;;0.10;0.10;;;;;;;;;;4980508;28;20063;-80
2023/12/20 00:57:34;;;;;;;0.10;0.10;;;;;;;;;;4959786;28;20066;-80
2023/12/20 01:00:01;;;;;;;0.10;0.10;;;;;;;;;;4966100;28;20065;-80
2023/12/20 01:02:27;;;;;;;0.10;0.10;;;;;;;;;;4985009;28;20150;-79
2023/12/20 01:04:54;;;;;;;0.10;0.10;;;;;;;;;;4966954;28;20051;-79
2023/12/20 01:07:21;;;;;;;0.10;0.10;;;;;;;;;;4979796;28;20055;-80
2023/12/20 01:09:47;;;;;;;0.00;0.00;;;;;;;;;;4968932;28;20062;-80
2023/12/20 01:12:14;;;;;;;0.10;0.10;;;;;;;;;;4967221;28;20052;-79
2023/12/20 01:14:40;;;;;;;0.10;0.10;;;;;;;;;;4966744;28;20075;-79
2023/12/20 01:17:06;;;;;;;0.10;0.10;;;;;;;;;;4985853;28;20055;-80
2023/12/20 01:19:33;;;;;;;0.10;0.10;;;;;;;;;;4978246;28;20063;-79
2023/12/20 01:21:59;;;;;;;0.10;0.10;;;;;;;;;;4962544;28;20091;-80
2023/12/20 01:24:26;;;;;;;0.10;0.10;;;;;;;;;;4968219;28;20055;-80
2023/12/20 01:26:52;;;;;;;0.10;0.10;;;;;;;;;;4968799;28;20059;-79
2023/12/20 01:29:19;;;;;;;0.10;0.10;;;;;;;;;;4985839;28;20048;-79
2023/12/20 01:31:45;;;;;;;0.10;0.10;;;;;;;;;;4963374;28;20051;-80
2023/12/20 01:34:12;;;;;;;0.10;0.10;;;;;;;;;;4984054;28;20040;-80
2023/12/20 01:36:39;;;;;;;0.10;0.10;;;;;;;;;;4963634;28;20067;-79
2023/12/20 01:39:06;;;;;;;0.10;0.10;;;;;;;;;;4969022;28;20051;-80
2023/12/20 01:41:50;;;;;;;0.10;0.10;;;;;;;;;;4985583;28;20063;-79
2023/12/20 01:44:16;;;;;;;0.10;0.10;;;;;;;;;;4968162;28;20051;-79
2023/12/20 01:46:43;;;;;;;0.05;0.05;;;;;;;;;;4984316;28;20884;-79
2023/12/20 01:49:09;;;;;;;0.00;0.00;;;;;;;;;;4980745;28;20046;-80
2023/12/20 01:51:36;;;;;;;0.00;0.00;;;;;;;;;;4968440;28;20039;-80
2023/12/20 01:54:03;;;;;;;0.10;0.10;;;;;;;;;;4953967;28;20039;-80
2023/12/20 01:56:30;;;;;;;0.10;0.10;;;;;;;;;;4969926;28;20055;-80
2023/12/20 01:58:57;;;;;;;0.10;0.10;;;;;;;;;;4979286;28;20055;-79
2023/12/20 02:01:24;;;;;;;0.10;0.10;;;;;;;;;;4983531;28;20035;-80
2023/12/20 02:03:51;;;;;;;0.10;0.10;;;;;;;;;;4959908;28;20134;-80
2023/12/20 02:06:18;;;;;;;0.10;0.10;;;;;;;;;;4961827;28;20051;-80
2023/12/20 02:08:44;;;;;;;0.10;0.10;;;;;;;;;;4967071;28;20055;-80
2023/12/20 02:11:11;;;;;;;0.10;0.10;;;;;;;;;;4967271;28;20834;-80
2023/12/20 02:13:37;;;;;;;0.68;0.68;;;;;;;;;;4982355;28;20059;-79
2023/12/20 02:16:04;;;;;;;0.10;0.10;;;;;;;;;;4957986;28;20054;-79
2023/12/20 02:18:30;;;;;;;0.10;0.10;;;;;;;;;;4958433;28;20062;-80
2023/12/20 02:20:57;;;;;;;0.10;0.10;;;;;;;;;;4961311;28;20865;-80
2023/12/20 02:23:23;;;;;;;0.10;0.10;;;;;;;;;;4963157;28;20055;-80
2023/12/20 02:25:49;;;;;;;0.10;0.10;;;;;;;;;;4966260;28;20051;-80
2023/12/20 02:28:16;;;;;;;0.10;0.10;;;;;;;;;;4966851;28;20055;-79
2023/12/20 02:30:46;;;;;;;0.10;0.10;;;;;;;;;;4960963;28;20138;-80
2023/12/20 02:33:13;;;;;;;0.10;0.10;;;;;;;;;;4966165;28;20146;-80
2023/12/20 02:35:40;;;;;;;2.60;1.85;;;;;;;;;;4969669;28;20062;-80
2023/12/20 02:38:06;;;;;;;0.10;0.10;;;;;;;;;;4963502;28;20059;-79
2023/12/20 02:40:33;;;;;;;0.10;0.10;;;;;;;;;;4982595;28;20088;-80
2023/12/20 02:42:59;;;;;;;0.10;0.10;;;;;;;;;;4972663;28;20039;-80
2023/12/20 02:45:26;;;;;;;0.10;0.10;;;;;;;;;;4977573;28;20163;-80
2023/12/20 02:47:53;;;;;;;0.10;0.10;;;;;;;;;;4962867;28;20051;-80
2023/12/20 02:50:19;;;;;;;0.35;0.35;;;;;;;;;;4985003;28;20103;-79
2023/12/20 02:52:46;;;;;;;0.10;0.10;;;;;;;;;;4965124;28;20056;-80
2023/12/20 02:55:12;;;;;;;0.10;0.10;;;;;;;;;;4980706;28;20043;-80
2023/12/20 02:57:42;;;;;;;0.10;0.10;;;;;;;;;;4982933;28;20386;-80
2023/12/20 03:00:10;;;;;;;0.10;0.10;;;;;;;;;;4963008;28;20039;-80
2023/12/20 03:02:36;;;;;;;0.10;0.10;;;;;;;;;;4978170;28;20076;-79
2023/12/20 03:05:03;;;;;;;0.10;0.10;;;;;;;;;;4963943;28;20051;-80
2023/12/20 03:07:30;;;;;;;0.10;0.10;;;;;;;;;;4983703;28;20044;-80
2023/12/20 03:09:56;;;;;;;0.10;0.10;;;;;;;;;;4965608;28;20059;-80
2023/12/20 03:12:41;;;;;;;0.10;0.10;;;;;;;;;;4967322;28;20083;-80
2023/12/20 03:15:08;;;;;;;0.10;0.10;;;;;;;;;;4963044;28;20039;-80
2023/12/20 03:17:34;;;;;;;0.10;0.10;;;;;;;;;;4960167;28;20052;-79
2023/12/20 03:20:01;;;;;;;0.10;0.10;;;;;;;;;;4965099;28;20055;-80
2023/12/20 03:22:27;;;;;;;0.10;0.10;;;;;;;;;;4960590;28;20075;-80
2023/12/20 03:24:54;;;;;;;0.10;0.10;;;;;;;;;;4966769;28;20141;-79
2023/12/20 03:27:20;;;;;;;0.10;0.10;;;;;;;;;;4977486;28;20050;-79
2023/12/20 03:29:46;;;;;;;0.10;0.10;;;;;;;;;;4970589;28;20110;-80
2023/12/20 03:32:13;;;;;;;0.10;0.10;;;;;;;;;;4965262;28;20055;-80
2023/12/20 03:34:39;;;;;;;0.10;0.10;;;;;;;;;;4981170;28;20109;-79
2023/12/20 03:37:06;;;;;;;0.10;0.10;;;;;;;;;;4980642;28;20052;-80
2023/12/20 03:39:33;;;;;;;0.10;0.10;;;;;;;;;;4962311;28;20107;-80
2023/12/20 03:41:59;;;;;;;0.10;0.10;;;;;;;;;;4956293;28;20055;-79
2023/12/20 03:44:25;;;;;;;0.10;0.10;;;;;;;;;;4963188;28;20062;-80
2023/12/20 03:46:52;;;;;;;0.10;0.10;;;;;;;;;;4966064;28;20082;-80
2023/12/20 03:49:18;;;;;;;0.10;0.10;;;;;;;;;;4965320;28;20050;-80
2023/12/20 03:51:45;;;;;;;0.10;0.10;;;;;;;;;;4959522;28;20062;-80
2023/12/20 03:54:11;;;;;;;0.10;0.10;;;;;;;;;;5052549;23;20047;-78
2023/12/20 03:56:38;;;;;;;0.10;0.10;;;;;;;;;;4997036;28;20062;-78
2023/12/20 03:59:04;;;;;;;0.10;0.10;;;;;;;;;;5003559;28;20058;-78
2023/12/20 04:01:30;;;;;;;0.30;0.30;;;;;;;;;;5009292;28;20054;-78
2023/12/20 04:03:57;;;;;;;0.10;0.10;;;;;;;;;;5000626;28;20054;-78
2023/12/20 04:06:24;;;;;;;0.08;0.08;;;;;;;;;;4995270;28;20173;-78
2023/12/20 04:08:50;;;;;;;0.10;0.10;;;;;;;;;;5007085;28;20054;-78
2023/12/20 04:11:17;;;;;;;0.10;0.10;;;;;;;;;;5005179;28;20058;-78
2023/12/20 04:13:44;;;;;;;0.10;0.10;;;;;;;;;;5006119;28;20532;-78
2023/12/20 04:16:10;;;;;;;0.10;0.10;;;;;;;;;;5006831;28;20538;-78
2023/12/20 04:18:37;;;;;;;0.25;0.25;;;;;;;;;;5004826;28;20539;-78
2023/12/20 04:21:03;;;;;;;0.10;0.10;;;;;;;;;;5006647;28;20054;-78
2023/12/20 04:23:30;;;;;;;0.10;0.10;;;;;;;;;;5006851;28;20064;-78
2023/12/20 04:25:56;;;;;;;0.10;0.10;;;;;;;;;;5003215;28;20137;-78
2023/12/20 04:28:22;;;;;;;0.10;0.10;;;;;;;;;;5005110;28;20058;-78
2023/12/20 04:30:49;;;;;;;0.25;0.25;;;;;;;;;;5006838;28;20047;-78
2023/12/20 04:33:15;;;;;;;0.10;0.10;;;;;;;;;;5006300;28;20541;-78
2023/12/20 04:35:42;;;;;;;0.10;0.10;;;;;;;;;;5002945;28;20058;-78
2023/12/20 04:38:09;;;;;;;0.10;0.10;;;;;;;;;;5005738;28;20059;-78
2023/12/20 04:40:35;;;;;;;0.10;0.10;;;;;;;;;;5002418;28;20942;-78
2023/12/20 04:43:02;;;;;;;0.10;0.10;;;;;;;;;;5004813;28;20516;-78
2023/12/20 04:45:28;;;;;;;0.10;0.10;;;;;;;;;;5001478;28;20836;-78
2023/12/20 04:47:55;;;;;;;0.10;0.10;;;;;;;;;;4999288;28;20157;-78
2023/12/20 04:50:21;;;;;;;0.10;0.10;;;;;;;;;;5005892;28;20073;-78
2023/12/20 04:52:48;;;;;;;0.10;0.10;;;;;;;;;;5001719;28;20086;-78
2023/12/20 04:55:14;;;;;;;0.10;0.10;;;;;;;;;;5005723;28;20504;-78
2023/12/20 04:57:40;;;;;;;0.10;0.10;;;;;;;;;;5007070;28;20050;-78
2023/12/20 05:00:08;;;;;;;0.10;0.10;;;;;;;;;;5005943;28;20062;-78
2023/12/20 05:02:38;;;;;;;0.10;0.10;;;;;;;;;;5005412;28;20176;-78
2023/12/20 05:05:04;;;;;;;0.10;0.10;;;;;;;;;;5008422;28;20522;-78
2023/12/20 05:07:30;;;;;;;0.10;0.10;;;;;;;;;;5006045;28;20051;-78
2023/12/20 05:09:58;;;;;;;0.10;0.10;;;;;;;;;;5004900;28;20054;-78
2023/12/20 05:12:24;;;;;;;0.10;0.10;;;;;;;;;;5004745;28;20062;-77
2023/12/20 05:14:51;;;;;;;0.10;0.10;;;;;;;;;;5006162;28;20054;-78
2023/12/20 05:17:18;;;;;;;1.75;1.05;;;;;;;;;;5006247;28;20151;-80
2023/12/20 05:19:44;;;;;;;0.10;0.10;;;;;;;;;;5006057;28;20054;-78
2023/12/20 05:22:11;;;;;;;4.00;1.38;;;;;;;;;;5003892;28;20473;-78
2023/12/20 05:24:37;;;;;;;0.10;0.10;;;;;;;;;;5002767;28;20062;-78
2023/12/20 05:27:03;;;;;;;0.10;0.10;;;;;;;;;;5003479;28;20051;-78
2023/12/20 05:29:30;;;;;;;0.10;0.10;;;;;;;;;;5004367;28;20137;-78
2023/12/20 05:31:57;;;;;;;0.10;0.10;;;;;;;;;;5004309;28;20051;-78
2023/12/20 05:34:24;;;;;;;0.10;0.10;;;;;;;;;;5006211;28;20061;-78
2023/12/20 05:36:51;;;;;;;0.10;0.10;;;;;;;;;;4996128;28;20054;-78
2023/12/20 05:39:20;;;;;;;0.10;0.10;;;;;;;;;;4988704;28;20050;-78
2023/12/20 05:41:47;;;;;;;0.10;0.10;;;;;;;;;;5001236;28;20058;-78
2023/12/20 05:44:14;;;;;;;0.10;0.10;;;;;;;;;;5000296;28;20566;-78
2023/12/20 05:46:40;;;;;;;0.10;0.10;;;;;;;;;;5006309;28;20551;-78
2023/12/20 05:49:06;;;;;;;0.10;0.10;;;;;;;;;;5002944;28;20065;-78
2023/12/20 05:51:33;;;;;;;0.10;0.10;;;;;;;;;;4995926;28;20063;-78
2023/12/20 05:54:00;;;;;;;0.10;0.10;;;;;;;;;;4999107;28;20074;-78
2023/12/20 05:56:27;;;;;;;0.10;0.10;;;;;;;;;;5002224;28;20058;-78
2023/12/20 05:58:53;;;;;;;0.10;0.10;;;;;;;;;;5006700;28;20055;-78
2023/12/20 06:01:20;;;;;;;0.10;0.10;;;;;;;;;;5000181;28;20081;-78
2023/12/20 06:03:46;;;;;;;0.10;0.10;;;;;;;;;;4998505;28;20082;-78
2023/12/20 06:06:13;;;;;;;0.10;0.10;;;;;;;;;;5000648;28;20053;-78
2023/12/20 06:08:43;;;;;;;0.10;0.10;;;;;;;;;;5007592;28;20054;-78
2023/12/20 06:11:10;;;;;;;0.10;0.10;;;;;;;;;;5003964;28;20065;-78
2023/12/20 06:13:36;;;;;;;18.98;1.42;;;;;;;;;;4991956;28;20058;-78
2023/12/20 06:16:04;;;;;;;0.10;0.10;;;;;;;;;;4995523;28;20525;-78
2023/12/20 06:18:31;;;;;;;0.10;0.10;;;;;;;;;;5001281;28;20047;-78
2023/12/20 06:20:57;;;;;;;0.30;0.30;;;;;;;;;;5000542;28;20086;-78
2023/12/20 06:23:24;;;;;;;0.10;0.10;;;;;;;;;;5007253;28;20133;-78
2023/12/20 06:25:50;;;;;;;0.10;0.10;;;;;;;;;;4991390;28;20059;-78
2023/12/20 06:28:17;;;;;;;0.10;0.10;;;;;;;;;;4999447;28;20058;-78
2023/12/20 06:30:43;;;;;;;0.10;0.10;;;;;;;;;;4989097;28;20118;-78
2023/12/20 06:33:11;;;;;;;0.10;0.10;;;;;;;;;;4993210;28;22237;-78
2023/12/20 06:35:37;;;;;;;0.10;0.10;;;;;;;;;;5004157;28;20165;-78
2023/12/20 06:38:04;;;;;;;0.10;0.10;;;;;;;;;;4994820;28;20054;-78
2023/12/20 06:40:30;;;;;;;0.10;0.10;;;;;;;;;;4987647;28;20130;-78
2023/12/20 06:42:57;;;;;;;0.20;0.20;;;;;;;;;;4993171;28;20062;-78
2023/12/20 06:45:35;;;;;;;0.10;0.10;;;;;;;;;;4995455;28;20078;-78
2023/12/20 06:48:02;;;;;;;0.28;0.28;;;;;;;;;;4993277;28;20130;-79
2023/12/20 06:50:28;;;;;;;0.10;0.10;;;;;;;;;;4995306;28;20055;-78
2023/12/20 06:52:55;;;;;;;0.10;0.10;;;;;;;;;;4998920;28;20081;-78
2023/12/20 06:55:21;;;;;;;0.10;0.10;;;;;;;;;;4988409;28;20054;-78
2023/12/20 06:57:48;;;;;;;0.10;0.10;;;;;;;;;;5005448;28;20058;-78
2023/12/20 07:00:15;;;;;;;0.10;0.10;;;;;;;;;;5006243;28;20176;-78
2023/12/20 07:02:41;;;;;;;0.10;0.10;;;;;;;;;;5005017;28;20054;-78
2023/12/20 07:05:08;;;;;;;0.10;0.10;;;;;;;;;;5006546;28;20058;-78
2023/12/20 07:07:34;;;;;;;0.10;0.10;;;;;;;;;;5006678;28;20141;-78
2023/12/20 07:10:01;;;;;;;0.10;0.10;;;;;;;;;;5004507;28;20137;-78
2023/12/20 07:12:28;;;;;;;0.10;0.10;;;;;;;;;;5002585;28;20063;-79
2023/12/20 07:14:55;;;;;;;0.10;0.10;;;;;;;;;;5004831;28;20034;-79
2023/12/20 07:17:22;;;;;;;1.50;1.40;;;;;;;;;;5006353;28;20369;-81
2023/12/20 07:19:49;;;;;;;0.10;0.10;;;;;;;;;;5009285;28;20066;-79
2023/12/20 07:22:15;;;;;;;0.10;0.10;;;;;;;;;;5007825;28;20064;-79
2023/12/20 07:24:42;;;;;;;0.10;0.10;;;;;;;;;;5005956;28;20050;-79
2023/12/20 07:27:08;;;;;;;0.10;0.10;;;;;;;;;;5001852;28;20110;-79
2023/12/20 07:29:35;;;;;;;0.10;0.10;;;;;;;;;;5010285;28;20054;-79
2023/12/20 07:32:01;;;;;;;0.10;0.10;;;;;;;;;;5002454;28;20138;-78
2023/12/20 07:34:28;;;;;;;0.10;0.10;;;;;;;;;;5003524;28;20070;-78
2023/12/20 07:36:54;;;;;;;0.10;0.10;;;;;;;;;;5006619;28;20062;-79
2023/12/20 07:39:21;;;;;;;0.85;0.85;;;;;;;;;;5007530;28;20046;-79
2023/12/20 07:41:47;;;;;;;0.10;0.10;;;;;;;;;;5006652;28;20919;-79
2023/12/20 07:44:15;;;;;;;0.10;0.10;;;;;;;;;;4999213;28;20058;-79
2023/12/20 07:46:41;;;;;;;0.10;0.10;;;;;;;;;;5007625;28;20700;-79
2023/12/20 07:49:10;;;;;;;0.10;0.10;;;;;;;;;;5002631;28;20599;-79
2023/12/20 07:51:36;;;;;;;0.10;0.10;;;;;;;;;;5006492;28;20089;-79
2023/12/20 07:54:03;;;;;;;0.10;0.10;;;;;;;;;;4996271;28;20054;-79
2023/12/20 07:56:29;;;;;;;1.38;1.35;;;;;;;;;;5002598;28;20062;-79
2023/12/20 07:58:56;;;;;;;0.13;0.13;;;;;;;;;;5004525;28;20138;-82
2023/12/20 08:01:25;;;;;;;0.10;0.10;;;;;;;;;;4998916;28;20139;-80
2023/12/20 08:03:52;;;;;;;0.10;0.10;;;;;;;;;;5000056;28;20050;-80
2023/12/20 08:06:19;;;;;;;0.10;0.10;;;;;;;;;;5006049;28;20059;-80
2023/12/20 08:08:45;;;;;;;0.10;0.10;;;;;;;;;;5004408;28;20099;-80
2023/12/20 08:11:20;;;;;;;0.25;0.25;;;;;;;;;;5004124;28;20050;-80
2023/12/20 08:13:47;;;;;;;0.10;0.10;;;;;;;;;;5003368;28;20090;-80
2023/12/20 08:16:15;;;;;;;0.20;0.20;;;;;;;;;;5005873;28;20118;-80
2023/12/20 08:18:41;;;;;;;0.10;0.10;;;;;;;;;;5006860;28;20059;-80
2023/12/20 08:21:08;;;;;;;0.10;0.10;;;;;;;;;;5004646;28;20043;-80
2023/12/20 08:23:35;;;;;;;0.10;0.10;;;;;;;;;;5008001;28;20847;-80
2023/12/20 08:26:05;;;;;;;0.10;0.10;;;;;;;;;;5008855;28;20124;-81
2023/12/20 08:28:31;;;;;;;0.10;0.10;;;;;;;;;;5008098;28;20058;-81
2023/12/20 08:30:58;;;;;;;0.20;0.20;;;;;;;;;;4985388;28;20057;-81
2023/12/20 08:33:25;;;;;;;0.10;0.10;;;;;;;;;;5001134;28;20038;-81
2023/12/20 08:35:51;;;;;;;0.10;0.10;;;;;;;;;;5000676;28;20062;-81
2023/12/20 08:38:18;;;;;;;0.10;0.10;;;;;;;;;;5007000;28;20579;-81
2023/12/20 08:40:44;;;;;;;0.10;0.10;;;;;;;;;;5004024;28;21068;-81
2023/12/20 08:43:11;;;;;;;0.10;0.10;;;;;;;;;;5007167;28;20062;-81
2023/12/20 08:45:38;;;;;;;0.17;0.17;;;;;;;;;;5004743;28;20081;-81
2023/12/20 08:48:05;;;;;;;0.10;0.10;;;;;;;;;;5006880;28;20105;-81
2023/12/20 08:50:35;;;;;;;0.10;0.10;;;;;;;;;;5004950;28;20073;-81
2023/12/20 08:53:01;;;;;;;0.10;0.10;;;;;;;;;;5005297;28;20061;-81
2023/12/20 08:55:28;;;;;;;0.10;0.10;;;;;;;;;;5005787;28;20061;-81
2023/12/20 08:57:55;;;;;;;0.10;0.10;;;;;;;;;;5007884;28;20053;-80
2023/12/20 09:00:24;;;;;;;0.10;0.10;;;;;;;;;;5003426;28;20054;-81
2023/12/20 09:02:50;;;;;;;0.10;0.10;;;;;;;;;;5005680;28;20544;-81
2023/12/20 09:05:17;;;;;;;0.10;0.10;;;;;;;;;;5005149;28;20050;-81
2023/12/20 09:07:43;;;;;;;0.10;0.10;;;;;;;;;;5005899;28;20133;-81
2023/12/20 09:10:10;;;;;;;0.10;0.10;;;;;;;;;;4998307;28;20054;-81
2023/12/20 09:12:39;;;;;;;0.10;0.10;;;;;;;;;;5007572;28;20058;-81
2023/12/20 09:15:06;;;;;;;0.10;0.10;;;;;;;;;;5008840;28;20062;-81
2023/12/20 09:17:33;;;;;;;0.10;0.10;;;;;;;;;;5011391;28;20166;-81
2023/12/20 09:19:59;;;;;;;0.10;0.10;;;;;;;;;;5006612;28;20059;-81
2023/12/20 09:22:26;;;;;;;0.13;0.13;;;;;;;;;;5009015;28;20113;-81
2023/12/20 09:24:53;;;;;;;0.10;0.10;;;;;;;;;;5006162;28;20051;-81
2023/12/20 09:27:19;;;;;;;0.10;0.10;;;;;;;;;;5004331;28;20078;-81
2023/12/20 09:29:45;;;;;;;0.10;0.10;;;;;;;;;;5005109;28;20086;-81
2023/12/20 09:32:12;;;;;;;0.17;0.17;;;;;;;;;;5011488;28;20050;-81
2023/12/20 09:34:38;;;;;;;0.10;0.10;;;;;;;;;;5010603;28;20058;-81
2023/12/20 09:37:05;;;;;;;0.10;0.10;;;;;;;;;;5007645;28;20579;-81
2023/12/20 09:39:32;;;;;;;0.10;0.10;;;;;;;;;;5003639;28;20058;-81
2023/12/20 09:42:02;;;;;;;0.10;0.10;;;;;;;;;;4999802;28;20579;-81
2023/12/20 09:44:29;;;;;;;0.10;0.10;;;;;;;;;;5007290;28;20524;-81
2023/12/20 09:46:56;;;;;;;0.10;0.10;;;;;;;;;;5004423;28;20057;-81
2023/12/20 09:49:23;;;;;;;0.10;0.10;;;;;;;;;;5000020;28;20062;-81
2023/12/20 09:51:50;;;;;;;0.10;0.10;;;;;;;;;;5008585;28;20068;-81
2023/12/20 09:54:17;;;;;;;0.10;0.10;;;;;;;;;;4997177;28;20055;-81
2023/12/20 09:56:44;;;;;;;1.95;1.27;;;;;;;;;;4981101;28;20178;-81
2023/12/20 09:59:13;;;;;;;1.35;0.52;;;;;;;;;;5000052;28;20186;-81
2023/12/20 10:01:40;;;;;;;0.10;0.10;;;;;;;;;;4995970;28;20918;-81
2023/12/20 10:04:12;;;;;;;0.10;0.10;;;;;;;;;;5007786;28;20074;-81
2023/12/20 10:06:56;;;;;;;0.10;0.10;;;;;;;;;;5009672;28;20133;-81
2023/12/20 10:09:23;;;;;;;0.10;0.10;;;;;;;;;;5076999;23;20513;-82
2023/12/20 10:11:53;;;;;;;0.10;0.10;;;;;;;;;;4997572;28;20060;-82
2023/12/20 10:14:22;;;;;;;0.10;0.10;;;;;;;;;;5014340;28;20050;-82
2023/12/20 10:16:49;;;;;;;0.10;0.10;;;;;;;;;;4984851;28;20089;-80
2023/12/20 10:19:19;;;;;;;0.10;0.10;;;;;;;;;;4990349;28;20054;-80
2023/12/20 10:21:45;;;;;;;0.10;0.10;;;;;;;;;;4986310;28;20101;-79
2023/12/20 10:24:17;;;;;;;0.10;0.10;;;;;;;;;;4989249;28;20815;-82
2023/12/20 10:26:43;;;;;;;0.17;0.17;;;;;;;;;;4986179;28;20077;-80
2023/12/20 10:29:09;;;;;;;0.10;0.10;;;;;;;;;;4987465;28;20061;-80
2023/12/20 10:31:38;;;;;;;0.10;0.10;;;;;;;;;;4979878;28;20061;-80
2023/12/20 10:34:05;;;;;;;0.10;0.10;;;;;;;;;;5003257;28;20066;-82
2023/12/20 10:36:32;;;;;;;0.10;0.10;;;;;;;;;;4998509;28;20834;-81
2023/12/20 10:38:59;;;;;;;0.10;0.10;;;;;;;;;;5010932;28;20480;-82
2023/12/20 10:41:27;;;;;;;0.10;0.10;;;;;;;;;;4997071;28;20054;-82
2023/12/20 10:44:06;;;;;;;0.20;0.20;;;;;;;;;;4996101;28;20822;-82
2023/12/20 10:46:33;;;;;;;0.10;0.10;;;;;;;;;;4988400;28;20066;-81
2023/12/20 10:49:04;;;;;;;0.10;0.10;;;;;;;;;;4991102;28;20109;-80
2023/12/20 10:51:31;;;;;;;0.10;0.10;;;;;;;;;;4998289;28;20031;-81
2023/12/20 10:53:58;;;;;;;0.10;0.10;;;;;;;;;;5010124;28;20046;-81
2023/12/20 10:56:25;;;;;;;0.10;0.10;;;;;;;;;;5008699;28;20120;-81
2023/12/20 10:58:51;;;;;;;0.10;0.10;;;;;;;;;;5002309;28;20043;-81
2023/12/20 11:01:18;;;;;;;0.10;0.10;;;;;;;;;;4993856;28;20042;-81
2023/12/20 11:03:49;;;;;;;0.10;0.10;;;;;;;;;;4992138;28;20337;-80
2023/12/20 11:06:19;;;;;;;0.10;0.10;;;;;;;;;;4989221;28;20070;-81
2023/12/20 11:08:55;;;;;;;0.20;0.20;;;;;;;;;;5002457;28;20120;-81
2023/12/20 11:11:25;;;;;;;0.10;0.10;;;;;;;;;;4992677;28;20042;-83
2023/12/20 11:14:00;;;;;;;0.10;0.10;;;;;;;;;;4997613;28;21051;-81
2023/12/20 11:16:26;;;;;;;0.10;0.10;;;;;;;;;;4990172;28;20050;-81
2023/12/20 11:19:06;;;;;;;0.10;0.10;;;;;;;;;;5001131;28;20129;-81
2023/12/20 11:21:33;;;;;;;0.30;0.30;;;;;;;;;;4994987;28;20382;-81
2023/12/20 11:24:01;;;;;;;0.10;0.10;;;;;;;;;;4991685;28;20050;-81
2023/12/20 11:26:30;;;;;;;0.32;0.32;;;;;;;;;;4985326;28;20062;-81
2023/12/20 11:29:15;;;;;;;0.10;0.10;;;;;;;;;;4992512;28;20516;-81
2023/12/20 11:31:42;;;;;;;0.10;0.10;;;;;;;;;;4999388;28;20067;-81
2023/12/20 11:34:17;;;;;;;0.10;0.10;;;;;;;;;;4994003;28;20157;-81
2023/12/20 11:36:43;;;;;;;0.63;0.63;;;;;;;;;;4987657;28;20927;-81
2023/12/20 11:39:10;;;;;;;0.10;0.10;;;;;;;;;;4999933;28;20704;-80
2023/12/20 11:41:39;;;;;;;0.10;0.10;;;;;;;;;;4998766;28;20835;-80
2023/12/20 11:44:05;;;;;;;0.10;0.10;;;;;;;;;;4992623;28;20132;-80
2023/12/20 11:46:33;;;;;;;0.17;0.17;;;;;;;;;;4989958;28;20169;-81
2023/12/20 11:49:00;;;;;;;0.10;0.10;;;;;;;;;;4985590;28;20066;-81
2023/12/20 11:51:27;;;;;;;0.10;0.10;;;;;;;;;;5002684;28;20057;-81
2023/12/20 11:53:54;;;;;;;0.10;0.10;;;;;;;;;;4993262;28;20947;-81
2023/12/20 11:56:21;;;;;;;0.10;0.10;;;;;;;;;;5005858;28;20082;-81
2023/12/20 11:58:48;;;;;;;0.10;0.10;;;;;;;;;;4987671;28;20063;-81
2023/12/20 12:01:16;;;;;;;0.10;0.10;;;;;;;;;;5016021;28;20058;-81
2023/12/20 12:03:46;;;;;;;0.10;0.10;;;;;;;;;;4997798;28;20058;-81
2023/12/20 12:06:13;;;;;;;0.10;0.10;;;;;;;;;;5001505;28;20054;-82
2023/12/20 12:08:40;;;;;;;0.10;0.10;;;;;;;;;;5008016;28;20145;-81
2023/12/20 12:11:06;;;;;;;0.10;0.10;;;;;;;;;;4995583;28;20050;-81
2023/12/20 12:13:33;;;;;;;0.10;0.10;;;;;;;;;;4987407;28;20054;-81
2023/12/20 12:15:59;;;;;;;0.10;0.10;;;;;;;;;;4996314;28;20054;-81
2023/12/20 12:18:26;;;;;;;0.13;0.13;;;;;;;;;;5007126;28;20051;-81
2023/12/20 12:20:59;;;;;;;0.10;0.10;;;;;;;;;;4979405;28;20125;-82
2023/12/20 12:23:26;;;;;;;0.10;0.10;;;;;;;;;;5001763;28;20066;-81
2023/12/20 12:25:52;;;;;;;0.10;0.10;;;;;;;;;;5005322;28;20078;-82
2023/12/20 12:28:18;;;;;;;0.10;0.10;;;;;;;;;;4993924;28;20051;-82
2023/12/20 12:31:00;;;;;;;0.15;0.15;;;;;;;;;;4984821;28;20632;-81
2023/12/20 12:33:27;;;;;;;0.10;0.10;;;;;;;;;;4990506;28;20125;-82
2023/12/20 12:35:54;;;;;;;0.10;0.10;;;;;;;;;;4995207;28;20062;-82
2023/12/20 12:38:21;;;;;;;0.10;0.10;;;;;;;;;;4993910;28;20070;-80
2023/12/20 12:40:48;;;;;;;0.10;0.10;;;;;;;;;;4996810;28;20062;-82
2023/12/20 12:43:14;;;;;;;0.10;0.10;;;;;;;;;;4987987;28;20063;-82
2023/12/20 12:45:40;;;;;;;0.10;0.10;;;;;;;;;;5007655;28;20061;-81
2023/12/20 12:48:07;;;;;;;0.10;0.10;;;;;;;;;;5009515;28;20062;-81
2023/12/20 12:50:34;;;;;;;0.10;0.10;;;;;;;;;;4987708;28;20035;-82
2023/12/20 12:53:00;;;;;;;0.10;0.10;;;;;;;;;;4988544;28;20638;-82
2023/12/20 12:55:31;;;;;;;0.15;0.15;;;;;;;;;;5002002;28;20054;-81
2023/12/20 12:58:59;;;;;;;;;;;;;;;;;;;;;
2023/12/20 13:15:50;;;;;;;0.10;0.10;;;;;;;;;;4848051;29;20060;-80
2023/12/20 13:18:18;;;;;;;0.10;0.10;;;;;;;;;;4926254;28;20114;-81
2023/12/20 13:20:45;;;;;;;0.22;0.22;;;;;;;;;;4989926;28;20141;-80
2023/12/20 13:23:11;;;;;;;0.10;0.10;;;;;;;;;;4992164;28;20057;-80
2023/12/20 13:25:38;;;;;;;0.10;0.10;;;;;;;;;;4987158;28;20059;-81
2023/12/20 13:28:05;;;;;;;0.10;0.10;;;;;;;;;;5017676;28;20054;-79
2023/12/20 13:30:31;;;;;;;0.10;0.10;;;;;;;;;;4991393;28;20096;-80
2023/12/20 13:32:58;;;;;;;0.10;0.10;;;;;;;;;;5000666;28;20103;-81
2023/12/20 13:35:24;;;;;;;0.10;0.10;;;;;;;;;;5012291;28;20065;-81
2023/12/20 13:37:51;;;;;;;0.10;0.10;;;;;;;;;;4998290;28;20058;-80
2023/12/20 13:40:18;;;;;;;0.10;0.10;;;;;;;;;;4984848;28;20047;-80
2023/12/20 13:42:45;;;;;;;0.10;0.10;;;;;;;;;;5011263;28;20055;-80
2023/12/20 13:45:11;;;;;;;0.10;0.10;;;;;;;;;;4995032;28;21014;-80
2023/12/20 13:47:38;;;;;;;0.10;0.10;;;;;;;;;;5009167;28;20062;-80
2023/12/20 13:50:05;;;;;;;0.10;0.10;;;;;;;;;;4990269;28;20073;-79
2023/12/20 13:52:32;;;;;;;0.10;0.10;;;;;;;;;;4996728;28;20065;-81
2023/12/20 13:55:01;;;;;;;0.10;0.10;;;;;;;;;;4989345;28;20079;-80
2023/12/20 13:57:29;;;;;;;0.10;0.10;;;;;;;;;;4994725;28;20069;-80
2023/12/20 14:00:16;;;;;;;0.10;0.10;;;;;;;;;;4999200;28;20092;-81
2023/12/20 14:02:42;;;;;;;0.30;0.30;;;;;;;;;;4989193;28;20817;-81
2023/12/20 14:05:10;;;;;;;0.10;0.10;;;;;;;;;;4997170;28;20058;-81
2023/12/20 14:07:36;;;;;;;0.10;0.10;;;;;;;;;;4991741;28;21208;-82
2023/12/20 14:10:03;;;;;;;0.10;0.10;;;;;;;;;;4997295;28;20062;-80
2023/12/20 14:12:30;;;;;;;0.10;0.10;;;;;;;;;;4997031;28;20106;-80
2023/12/20 14:14:56;;;;;;;0.10;0.10;;;;;;;;;;4992253;28;20137;-81
2023/12/20 14:17:22;;;;;;;0.10;0.10;;;;;;;;;;5009072;28;20062;-80
2023/12/20 14:19:49;;;;;;;0.10;0.10;;;;;;;;;;4993783;28;20114;-82
2023/12/20 14:22:16;;;;;;;0.10;0.10;;;;;;;;;;4991324;28;20099;-81
2023/12/20 14:24:43;;;;;;;0.10;0.10;;;;;;;;;;4997077;28;20115;-81
2023/12/20 14:27:10;;;;;;;1.85;0.85;;;;;;;;;;4999426;28;20065;-81
2023/12/20 14:29:37;;;;;;;0.10;0.10;;;;;;;;;;4999724;28;20066;-80
2023/12/20 14:32:05;;;;;;;0.10;0.10;;;;;;;;;;5007418;28;20564;-81
2023/12/20 14:34:31;;;;;;;0.10;0.10;;;;;;;;;;5010497;28;20125;-81
2023/12/20 14:36:58;;;;;;;0.15;0.15;;;;;;;;;;5010282;28;20102;-80
2023/12/20 14:39:24;;;;;;;0.10;0.10;;;;;;;;;;4991959;28;20051;-80
2023/12/20 14:41:51;;;;;;;0.10;0.10;;;;;;;;;;4987987;28;20133;-81
2023/12/20 14:44:20;;;;;;;0.13;0.13;;;;;;;;;;5010429;28;20038;-81
2023/12/20 14:46:46;;;;;;;0.10;0.10;;;;;;;;;;4982971;28;20169;-81
2023/12/20 14:49:14;;;;;;;0.10;0.10;;;;;;;;;;5001243;28;20049;-80
2023/12/20 14:51:43;;;;;;;0.10;0.10;;;;;;;;;;4991205;28;20047;-81
2023/12/20 14:54:10;;;;;;;0.10;0.10;;;;;;;;;;4999158;28;20046;-81
2023/12/20 14:56:37;;;;;;;0.10;0.10;;;;;;;;;;4999129;28;20099;-81
2023/12/20 14:59:04;;;;;;;0.10;0.10;;;;;;;;;;4992419;28;20062;-80